createdAt,value
2019-02-21T00:00:56.841Z,8.58
2019-02-21T00:03:28.803Z,10.20
2019-02-21T00:05:59.088Z,10.43
2019-02-21T00:08:33.324Z,12.13
2019-02-21T00:11:03.710Z,10.40
2019-02-21T00:13:34.073Z,11.70
2019-02-21T00:16:04.320Z,10.70
2019-02-21T00:18:34.551Z,11.90
2019-02-21T00:21:05.017Z,12.60
2019-02-21T00:23:35.433Z,8.53
2019-02-21T00:26:05.657Z,8.47
2019-02-21T00:28:35.941Z,12.43
2019-02-21T00:31:06.421Z,8.90
2019-02-21T00:33:36.769Z,8.60
2019-02-21T00:36:07.112Z,9.20
2019-02-21T00:38:37.720Z,8.90
2019-02-21T00:41:07.899Z,8.47
2019-02-21T00:43:38.124Z,8.77
2019-02-21T00:46:08.522Z,9.13
2019-02-21T00:48:38.654Z,8.47
2019-02-21T00:51:08.778Z,9.47
2019-02-21T00:53:39.994Z,8.30
2019-02-21T00:56:10.358Z,12.70
2019-02-21T00:58:41.063Z,11.80
2019-02-21T01:01:11.271Z,10.67
2019-02-21T01:03:41.694Z,18.90
2019-02-21T01:06:11.970Z,9.70
2019-02-21T01:08:42.178Z,8.90
2019-02-21T01:11:12.382Z,15.83
2019-02-21T01:13:42.725Z,8.40
2019-02-21T01:16:13.011Z,7.70
2019-02-21T01:18:43.664Z,11.10
2019-02-21T01:21:13.915Z,17.20
2019-02-21T01:23:44.323Z,8.10
2019-02-21T01:26:14.467Z,7.80
2019-02-21T01:28:44.899Z,9.40
2019-02-21T01:31:15.135Z,9.50
2019-02-21T01:33:45.664Z,11.20
2019-02-21T01:36:16.190Z,9.50
2019-02-21T01:38:46.479Z,9.27
2019-02-21T01:41:16.685Z,9.33
2019-02-21T01:43:46.778Z,9.00
2019-02-21T01:46:17.082Z,13.23
2019-02-21T01:48:47.219Z,8.97
2019-02-21T01:51:17.479Z,10.33
2019-02-21T01:53:47.815Z,9.23
2019-02-21T01:56:19.018Z,15.53
2019-02-21T01:58:50.586Z,14.60
2019-02-21T02:01:21.087Z,10.40
2019-02-21T02:03:51.314Z,11.73
2019-02-21T02:06:21.760Z,14.17
2019-02-21T02:08:51.997Z,11.47
2019-02-21T02:11:22.118Z,12.43
2019-02-21T02:13:52.251Z,9.93
2019-02-21T02:16:22.453Z,8.60
2019-02-21T02:18:52.617Z,13.77
2019-02-21T02:21:22.868Z,8.63
2019-02-21T02:23:53.183Z,8.10
2019-02-21T02:26:23.325Z,10.30
2019-02-21T02:28:53.483Z,9.10
2019-02-21T02:31:23.982Z,9.98
2019-02-21T02:33:54.689Z,8.70
2019-02-21T02:36:24.919Z,12.13
2019-02-21T02:38:55.148Z,9.47
2019-02-21T02:41:25.384Z,9.47
2019-02-21T02:43:55.671Z,9.65
2019-02-21T02:46:25.933Z,9.63
2019-02-21T02:48:56.078Z,8.53
2019-02-21T02:51:26.359Z,10.95
2019-02-21T02:53:56.933Z,8.43
2019-02-21T02:56:27.257Z,9.60
2019-02-21T02:58:57.414Z,9.10
2019-02-21T03:01:34.693Z,10.73
2019-02-21T03:04:00.124Z,10.90
2019-02-21T03:06:30.278Z,12.40
2019-02-21T03:09:00.541Z,10.37
2019-02-21T03:11:32.350Z,12.70
2019-02-21T03:14:02.629Z,9.57
2019-02-21T03:16:32.979Z,14.83
2019-02-21T03:19:03.127Z,8.80
2019-02-21T03:21:33.368Z,19.27
2019-02-21T03:24:04.681Z,16.37
2019-02-21T03:26:34.848Z,8.67
2019-02-21T03:29:05.124Z,13.20
2019-02-21T03:31:52.688Z,9.00
2019-02-21T03:34:07.108Z,12.97
2019-02-21T03:36:37.435Z,12.70
2019-02-21T03:39:09.658Z,12.27
2019-02-21T03:41:40.066Z,11.00
2019-02-21T03:44:10.642Z,10.80
2019-02-21T03:46:41.001Z,11.70
2019-02-21T03:49:11.368Z,15.93
2019-02-21T03:51:41.705Z,12.03
2019-02-21T03:54:11.849Z,11.07
2019-02-21T03:56:42.549Z,9.03
2019-02-21T03:59:13.002Z,14.10
2019-02-21T04:01:43.629Z,9.55
2019-02-21T04:04:14.092Z,11.40
2019-02-21T04:06:44.522Z,10.67
2019-02-21T04:09:14.771Z,18.80
2019-02-21T04:11:45.109Z,11.60
2019-02-21T04:14:15.414Z,11.57
2019-02-21T04:16:45.610Z,9.47
2019-02-21T04:19:15.759Z,14.30
2019-02-21T04:21:46.900Z,11.88
2019-02-21T04:24:17.128Z,8.07
2019-02-21T04:26:47.316Z,12.30
2019-02-21T04:29:17.520Z,9.63
2019-02-21T04:31:47.818Z,11.67
2019-02-21T04:34:18.533Z,13.00
2019-02-21T04:36:48.885Z,11.83
2019-02-21T04:39:19.293Z,12.60
2019-02-21T04:41:49.581Z,12.23
2019-02-21T04:44:19.739Z,14.80
2019-02-21T04:46:49.879Z,18.67
2019-02-21T04:49:20.031Z,11.28
2019-02-21T04:51:50.367Z,9.60
2019-02-21T04:54:20.647Z,16.17
2019-02-21T04:56:50.834Z,11.73
2019-02-21T04:59:20.958Z,11.47
2019-02-21T05:01:51.109Z,14.50
2019-02-21T05:04:21.393Z,14.80
2019-02-21T05:06:51.715Z,10.73
2019-02-21T05:09:22.218Z,9.93
2019-02-21T05:11:52.678Z,14.30
2019-02-21T05:14:23.009Z,11.97
2019-02-21T05:16:53.289Z,10.63
2019-02-21T05:19:23.408Z,12.60
2019-02-21T05:21:53.547Z,13.00
2019-02-21T05:24:23.754Z,12.60
2019-02-21T05:26:58.203Z,9.30
2019-02-21T05:29:28.776Z,12.40
2019-02-21T05:32:08.943Z,12.90
2019-02-21T05:34:46.992Z,11.20
2019-02-21T05:37:28.600Z,15.80
2019-02-21T05:40:17.790Z,15.43
2019-02-21T05:43:16.187Z,16.40
2019-02-21T05:46:11.307Z,11.67
2019-02-21T05:49:12.702Z,14.53
2019-02-21T05:52:05.377Z,10.10
2019-02-21T05:54:40.813Z,12.53
2019-02-21T05:57:18.633Z,12.30
2019-02-21T06:00:05.606Z,17.73
2019-02-21T06:03:03.813Z,22.83
2019-02-21T06:05:59.208Z,13.93
2019-02-21T06:08:48.174Z,12.70
2019-02-21T06:11:40.591Z,13.47
2019-02-21T06:14:30.764Z,12.27
2019-02-21T06:17:24.001Z,16.53
2019-02-21T06:20:13.604Z,11.70
2019-02-21T06:23:01.718Z,10.60
2019-02-21T06:25:50.901Z,15.10
2019-02-21T06:28:23.786Z,13.97
2019-02-21T06:31:02.639Z,10.93
2019-02-21T06:33:32.927Z,13.33
2019-02-21T06:36:03.549Z,10.70
2019-02-21T06:38:34.037Z,13.90
2019-02-21T06:41:05.410Z,11.27
2019-02-21T06:43:35.760Z,14.17
2019-02-21T06:46:06.490Z,11.70
2019-02-21T06:48:36.711Z,15.40
2019-02-21T06:51:06.896Z,16.50
2019-02-21T06:53:37.280Z,14.77
2019-02-21T06:56:07.446Z,14.03
2019-02-21T06:58:37.734Z,12.73
2019-02-21T07:01:07.909Z,11.70
2019-02-21T07:03:38.238Z,11.05
2019-02-21T07:06:09.049Z,15.33
2019-02-21T07:08:40.224Z,10.80
2019-02-21T07:11:11.541Z,12.77
2019-02-21T07:13:42.059Z,13.30
2019-02-21T07:16:13.235Z,11.05
2019-02-21T07:18:43.861Z,11.10
2019-02-21T07:21:14.165Z,11.00
2019-02-21T07:23:44.774Z,15.18
2019-02-21T07:26:17.574Z,20.20
2019-02-21T07:28:48.559Z,13.60
2019-02-21T07:31:28.078Z,16.10
2019-02-21T07:33:50.954Z,13.13
2019-02-21T07:36:21.248Z,13.33
2019-02-21T07:38:51.616Z,14.03
2019-02-21T07:41:22.253Z,14.40
2019-02-21T07:43:52.663Z,14.07
2019-02-21T07:46:23.033Z,13.57
2019-02-21T07:48:53.245Z,17.77
2019-02-21T07:51:24.238Z,13.70
2019-02-21T07:53:54.597Z,13.77
2019-02-21T07:56:24.795Z,17.93
2019-02-21T07:58:57.569Z,14.70
2019-02-21T08:01:27.443Z,22.00
2019-02-21T08:03:58.329Z,17.00
2019-02-21T08:06:28.853Z,24.77
2019-02-21T08:08:59.603Z,23.03
2019-02-21T08:11:30.076Z,19.30
2019-02-21T08:14:01.425Z,22.53
2019-02-21T08:16:32.075Z,21.57
2019-02-21T08:19:02.661Z,23.50
2019-02-21T08:21:33.042Z,18.40
2019-02-21T08:24:03.674Z,17.80
2019-02-21T08:26:33.979Z,14.47
2019-02-21T08:29:06.207Z,15.33
2019-02-21T08:31:36.301Z,14.97
2019-02-21T08:34:17.311Z,14.20
2019-02-21T08:36:47.514Z,13.27
2019-02-21T08:39:17.656Z,12.73
2019-02-21T08:41:47.920Z,13.83
2019-02-21T08:44:18.314Z,15.70
2019-02-21T08:46:48.564Z,12.50
2019-02-21T08:49:19.217Z,16.53
2019-02-21T08:51:49.721Z,16.60
2019-02-21T08:54:19.971Z,13.67
2019-02-21T08:56:50.124Z,12.50
2019-02-21T08:59:20.395Z,15.23
2019-02-21T09:01:50.639Z,12.07
2019-02-21T09:04:27.272Z,12.00
2019-02-21T09:06:52.891Z,17.10
2019-02-21T09:09:23.256Z,12.33
2019-02-21T09:11:53.926Z,14.67
2019-02-21T09:14:24.326Z,18.37
2019-02-21T09:16:54.605Z,11.30
2019-02-21T09:19:24.973Z,15.17
2019-02-21T09:21:55.167Z,17.47
2019-02-21T09:24:38.443Z,11.67
2019-02-21T09:27:00.161Z,11.13
2019-02-21T09:29:29.421Z,10.33
2019-02-21T09:32:00.266Z,10.77
2019-02-21T09:34:30.665Z,10.93
2019-02-21T09:37:00.971Z,9.97
2019-02-21T09:39:31.246Z,10.43
2019-02-21T09:42:01.525Z,29.97
2019-02-21T09:44:31.899Z,11.93
2019-02-21T09:47:02.457Z,13.33
2019-02-21T09:49:32.935Z,12.00
2019-02-21T09:52:03.227Z,13.63
2019-02-21T09:54:33.395Z,12.70
2019-02-21T09:57:12.850Z,12.07
2019-02-21T09:59:36.763Z,13.83
2019-02-21T10:02:07.923Z,12.23
2019-02-21T10:04:38.225Z,12.37
2019-02-21T10:07:08.421Z,10.20
2019-02-21T10:09:38.694Z,8.13
2019-02-21T10:12:08.886Z,8.67
2019-02-21T10:14:39.132Z,9.07
2019-02-21T10:17:09.295Z,9.00
2019-02-21T10:19:39.406Z,8.50
2019-02-21T10:22:09.546Z,10.05
2019-02-21T10:24:39.894Z,7.90
2019-02-21T10:27:10.673Z,7.40
2019-02-21T10:29:40.812Z,14.13
2019-02-21T10:32:11.140Z,13.83
2019-02-21T10:34:43.303Z,8.67
2019-02-21T10:37:13.319Z,7.47
2019-02-21T10:39:43.839Z,13.60
2019-02-21T10:42:14.023Z,8.03
2019-02-21T10:44:45.371Z,8.60
2019-02-21T10:47:15.561Z,11.93
2019-02-21T10:49:45.849Z,7.95
2019-02-21T10:52:16.442Z,8.30
2019-02-21T10:54:46.726Z,10.95
2019-02-21T10:57:20.671Z,14.43
2019-02-21T10:59:51.146Z,17.93
2019-02-21T11:02:21.372Z,13.13
2019-02-21T11:04:54.849Z,13.03
2019-02-21T11:07:23.811Z,11.97
2019-02-21T11:09:53.905Z,7.92
2019-02-21T11:12:24.486Z,7.35
2019-02-21T11:14:54.929Z,8.55
2019-02-21T11:17:25.932Z,8.13
2019-02-21T11:19:57.599Z,7.50
2019-02-21T11:22:28.840Z,8.03
2019-02-21T11:24:58.970Z,6.95
2019-02-21T11:27:29.225Z,7.75
2019-02-21T11:29:59.556Z,11.40
2019-02-21T11:32:30.229Z,6.25
2019-02-21T11:35:06.425Z,9.50
2019-02-21T11:37:42.759Z,6.50
2019-02-21T11:40:06.115Z,5.25
2019-02-21T11:42:36.273Z,6.45
2019-02-21T11:45:07.392Z,9.10
2019-02-21T11:47:37.912Z,5.80
2019-02-21T11:50:09.522Z,5.60
2019-02-21T11:52:39.945Z,10.30
2019-02-21T11:55:12.816Z,17.40
2019-02-21T11:57:43.181Z,4.67
2019-02-21T12:00:17.257Z,4.25
2019-02-21T12:02:47.521Z,3.67
2019-02-21T12:05:30.184Z,6.70
2019-02-21T12:07:50.941Z,4.10
2019-02-21T12:10:22.349Z,11.40
2019-02-21T12:12:52.916Z,16.82
2019-02-21T12:15:23.420Z,9.03
2019-02-21T12:17:53.734Z,6.53
2019-02-21T12:20:24.017Z,6.85
2019-02-21T12:22:54.243Z,4.17
2019-02-21T12:25:24.573Z,4.12
2019-02-21T12:27:55.066Z,7.17
2019-02-21T12:30:25.475Z,4.60
2019-02-21T12:32:55.800Z,5.47
2019-02-21T12:35:29.907Z,5.28
2019-02-21T12:37:59.133Z,7.53
2019-02-21T12:40:30.380Z,6.55
2019-02-21T12:43:00.697Z,4.80
2019-02-21T12:45:30.999Z,5.17
2019-02-21T12:48:01.942Z,5.33
2019-02-21T12:50:43.695Z,8.93
2019-02-21T12:53:04.511Z,7.30
2019-02-21T12:55:36.154Z,6.20
2019-02-21T12:58:06.496Z,5.70
2019-02-21T13:00:37.002Z,7.50
2019-02-21T13:03:07.268Z,9.33
2019-02-21T13:05:41.567Z,8.13
2019-02-21T13:08:13.020Z,6.43
2019-02-21T13:10:43.237Z,8.20
2019-02-21T13:13:13.556Z,12.23
2019-02-21T13:15:44.025Z,10.33
2019-02-21T13:18:16.086Z,11.93
2019-02-21T13:20:46.150Z,16.00
2019-02-21T13:23:16.673Z,16.33
2019-02-21T13:25:46.825Z,10.10
2019-02-21T13:28:17.025Z,11.90
2019-02-21T13:30:47.326Z,15.90
2019-02-21T13:33:18.248Z,17.33
2019-02-21T13:35:52.605Z,25.10
2019-02-21T13:38:20.682Z,13.57
2019-02-21T13:40:51.292Z,11.40
2019-02-21T13:43:21.817Z,15.27
2019-02-21T13:45:52.119Z,13.27
2019-02-21T13:48:22.896Z,21.48
2019-02-21T13:50:53.373Z,26.47
2019-02-21T13:53:23.690Z,13.27
2019-02-21T13:55:53.892Z,24.13
2019-02-21T13:58:24.050Z,20.70
2019-02-21T14:00:54.301Z,13.33
2019-02-21T14:03:27.726Z,25.30
2019-02-21T14:06:03.512Z,17.03
2019-02-21T14:08:31.543Z,25.93
2019-02-21T14:11:01.936Z,12.20
2019-02-21T14:13:32.199Z,13.20
2019-02-21T14:16:02.471Z,11.07
2019-02-21T14:18:32.711Z,15.43
2019-02-21T14:21:03.522Z,23.80
2019-02-21T14:23:33.931Z,11.90
2019-02-21T14:26:04.629Z,17.50
2019-02-21T14:28:37.409Z,12.73
2019-02-21T14:31:07.558Z,20.30
2019-02-21T14:33:38.242Z,20.07
2019-02-21T14:36:15.495Z,25.03
2019-02-21T14:38:40.666Z,21.00
2019-02-21T14:41:10.946Z,29.00
2019-02-21T14:43:41.515Z,21.43
2019-02-21T14:46:12.075Z,34.27
2019-02-21T14:48:42.459Z,23.57
2019-02-21T14:51:12.747Z,23.40
2019-02-21T14:53:43.080Z,20.13
2019-02-21T14:56:13.402Z,40.63
2019-02-21T14:58:43.990Z,39.00
2019-02-21T15:01:14.451Z,33.70
2019-02-21T15:03:44.927Z,37.67
2019-02-21T15:06:26.482Z,29.83
2019-02-21T15:08:48.640Z,38.70
2019-02-21T15:11:19.147Z,21.23
2019-02-21T15:13:49.378Z,26.87
2019-02-21T15:16:19.733Z,24.10
2019-02-21T15:18:50.136Z,24.90
2019-02-21T15:21:20.821Z,25.87
2019-02-21T15:23:51.187Z,31.67
2019-02-21T15:26:21.634Z,31.00
2019-02-21T15:28:53.209Z,34.75
2019-02-21T15:31:23.627Z,34.70
2019-02-21T15:33:53.892Z,28.50
2019-02-21T15:36:24.267Z,31.00
2019-02-21T15:38:54.573Z,29.23
2019-02-21T15:41:24.911Z,27.50
2019-02-21T15:43:55.747Z,21.50
2019-02-21T15:46:27.125Z,25.48
2019-02-21T15:48:57.418Z,24.90
2019-02-21T15:51:27.828Z,30.23
2019-02-21T15:53:58.692Z,43.97
2019-02-21T15:56:29.284Z,27.80
2019-02-21T15:58:59.734Z,44.13
2019-02-21T16:01:30.076Z,207.63
2019-02-21T16:04:00.498Z,80.73
2019-02-21T16:06:30.700Z,54.33
2019-02-21T16:09:00.980Z,42.70
2019-02-21T16:11:32.895Z,30.47
2019-02-21T16:14:03.800Z,29.20
2019-02-21T16:16:34.268Z,24.70
2019-02-21T16:19:04.601Z,31.93
2019-02-21T16:21:34.800Z,26.97
2019-02-21T16:24:06.496Z,31.43
2019-02-21T16:26:36.920Z,22.37
2019-02-21T16:29:07.238Z,18.90
2019-02-21T16:31:37.827Z,34.80
2019-02-21T16:34:09.490Z,27.63
2019-02-21T16:36:39.774Z,27.90
2019-02-21T16:39:10.590Z,18.47
2019-02-21T16:41:40.987Z,20.47
2019-02-21T16:44:11.416Z,23.57
2019-02-21T16:46:42.106Z,21.57
2019-02-21T16:49:12.603Z,25.03
2019-02-21T16:51:42.774Z,21.03
2019-02-21T16:54:13.162Z,38.63
2019-02-21T16:56:43.343Z,30.97
2019-02-21T16:59:14.449Z,20.70
2019-02-21T17:01:44.744Z,42.33
2019-02-21T17:04:15.033Z,30.10
2019-02-21T17:06:45.794Z,39.03
2019-02-21T17:09:16.342Z,38.73
2019-02-21T17:11:46.872Z,46.63
2019-02-21T17:14:17.431Z,36.87
2019-02-21T17:16:47.810Z,36.33
2019-02-21T17:19:18.498Z,38.63
2019-02-21T17:21:48.818Z,31.40
2019-02-21T17:24:19.297Z,45.87
2019-02-21T17:26:49.722Z,38.70
2019-02-21T17:29:26.729Z,31.43
2019-02-21T17:31:57.198Z,20.20
2019-02-21T17:34:27.891Z,29.50
2019-02-21T17:36:58.301Z,20.80
2019-02-21T17:39:28.466Z,22.53
2019-02-21T17:41:58.849Z,21.63
2019-02-21T17:44:31.752Z,26.47
2019-02-21T17:47:01.742Z,28.27
2019-02-21T17:49:32.107Z,31.27
2019-02-21T17:52:04.073Z,31.90
2019-02-21T17:54:34.383Z,30.97
2019-02-21T17:57:04.789Z,32.53
2019-02-21T17:59:35.726Z,18.20
2019-02-21T18:02:06.588Z,25.40
2019-02-21T18:04:37.129Z,22.33
2019-02-21T18:07:07.902Z,20.70
2019-02-21T18:09:38.367Z,24.83
2019-02-21T18:12:08.983Z,19.47
2019-02-21T18:14:41.371Z,23.43
2019-02-21T18:17:11.915Z,33.80
2019-02-21T18:19:43.470Z,21.80
2019-02-21T18:22:14.090Z,19.97
2019-02-21T18:24:44.724Z,28.83
2019-02-21T18:27:15.579Z,18.70
2019-02-21T18:29:46.908Z,27.40
2019-02-21T18:32:17.430Z,23.63
2019-02-21T18:34:49.570Z,23.43
2019-02-21T18:37:20.401Z,19.87
2019-02-21T18:39:50.811Z,27.47
2019-02-21T18:42:21.698Z,25.83
2019-02-21T18:44:52.094Z,20.03
2019-02-21T18:47:22.730Z,21.87
2019-02-21T18:49:53.326Z,23.20
2019-02-21T18:52:23.838Z,26.57
2019-02-21T18:54:54.643Z,27.37
2019-02-21T18:57:25.447Z,32.07
2019-02-21T18:59:56.296Z,24.37
2019-02-21T19:02:27.369Z,25.20
2019-02-21T19:04:58.414Z,23.23
2019-02-21T19:07:29.097Z,72.82
2019-02-21T19:09:59.886Z,34.83
2019-02-21T19:12:30.534Z,20.00
2019-02-21T19:15:01.237Z,23.30
2019-02-21T19:17:31.829Z,20.90
2019-02-21T19:20:02.485Z,31.13
2019-02-21T19:22:33.376Z,24.70
2019-02-21T19:25:03.950Z,20.20
2019-02-21T19:27:37.522Z,16.47
2019-02-21T19:30:14.177Z,24.53
2019-02-21T19:32:44.880Z,25.60
2019-02-21T19:35:16.039Z,20.20
2019-02-21T19:37:46.473Z,18.00
2019-02-21T19:40:17.286Z,21.93
2019-02-21T19:42:47.985Z,19.10
2019-02-21T19:45:18.782Z,21.57
2019-02-21T19:47:49.454Z,23.33
2019-02-21T19:50:19.760Z,21.63
2019-02-21T19:52:50.834Z,26.60
2019-02-21T19:55:21.994Z,22.30
2019-02-21T19:57:52.655Z,23.00
2019-02-21T20:00:24.585Z,19.70
2019-02-21T20:02:55.606Z,23.92
2019-02-21T20:05:26.429Z,26.83
2019-02-21T20:08:07.837Z,23.73
2019-02-21T20:10:29.540Z,25.40
2019-02-21T20:13:01.672Z,31.10
2019-02-21T20:15:32.493Z,23.30
2019-02-21T20:18:03.558Z,22.67
2019-02-21T20:20:34.387Z,26.60
2019-02-21T20:23:04.789Z,23.70
2019-02-21T20:25:36.571Z,26.17
2019-02-21T20:28:08.377Z,15.67
2019-02-21T20:30:39.080Z,18.48
2019-02-21T20:33:10.004Z,18.23
2019-02-21T20:35:40.836Z,19.33
2019-02-21T20:38:12.333Z,17.95
2019-02-21T20:40:42.843Z,14.20
2019-02-21T20:43:13.374Z,15.73
2019-02-21T20:45:52.526Z,24.43
2019-02-21T20:48:16.424Z,14.57
2019-02-21T20:50:56.385Z,21.37
2019-02-21T20:53:18.899Z,17.07
2019-02-21T20:55:49.132Z,20.27
2019-02-21T20:58:19.465Z,19.70
2019-02-21T21:00:50.504Z,12.55
2019-02-21T21:03:21.227Z,14.68
2019-02-21T21:05:51.885Z,12.77
2019-02-21T21:08:22.787Z,18.17
2019-02-21T21:10:53.128Z,17.03
2019-02-21T21:13:23.553Z,19.12
2019-02-21T21:15:53.885Z,19.60
2019-02-21T21:18:24.938Z,18.90
2019-02-21T21:20:55.592Z,18.60
2019-02-21T21:23:26.004Z,19.80
2019-02-21T21:25:56.450Z,16.67
2019-02-21T21:28:27.329Z,14.20
2019-02-21T21:30:57.709Z,21.70
2019-02-21T21:33:27.951Z,14.27
2019-02-21T21:35:58.138Z,19.43
2019-02-21T21:38:29.019Z,16.60
2019-02-21T21:41:01.333Z,15.33
2019-02-21T21:43:31.779Z,15.67
2019-02-21T21:46:02.337Z,15.77
2019-02-21T21:48:32.909Z,17.93
2019-02-21T21:51:03.304Z,13.90
2019-02-21T21:53:33.654Z,16.60
2019-02-21T21:56:04.446Z,17.07
2019-02-21T21:58:34.825Z,14.77
2019-02-21T22:01:05.131Z,13.63
2019-02-21T22:03:35.694Z,13.50
2019-02-21T22:06:06.115Z,13.85
2019-02-21T22:08:39.104Z,11.10
2019-02-21T22:11:10.210Z,15.83
2019-02-21T22:13:40.737Z,16.63
2019-02-21T22:16:11.484Z,14.03
2019-02-21T22:18:41.955Z,20.63
2019-02-21T22:21:12.397Z,18.60
2019-02-21T22:23:43.273Z,17.70
2019-02-21T22:26:13.549Z,13.27
2019-02-21T22:28:44.115Z,11.70
2019-02-21T22:31:14.627Z,14.35
2019-02-21T22:33:46.139Z,17.97
2019-02-21T22:36:16.488Z,15.10
2019-02-21T22:38:46.656Z,10.88
2019-02-21T22:41:16.992Z,11.63
2019-02-21T22:43:47.143Z,17.23
2019-02-21T22:46:17.491Z,12.70
2019-02-21T22:48:47.659Z,19.37
2019-02-21T22:51:17.799Z,13.50
2019-02-21T22:53:48.163Z,11.83
2019-02-21T22:56:18.369Z,13.70
2019-02-21T22:58:48.982Z,20.57
2019-02-21T23:01:36.724Z,10.50
2019-02-21T23:04:23.398Z,14.00
2019-02-21T23:07:03.801Z,20.57
2019-02-21T23:09:33.975Z,11.27
2019-02-21T23:12:04.274Z,11.60
2019-02-21T23:14:35.152Z,18.93
2019-02-21T23:17:05.978Z,14.30
2019-02-21T23:19:37.167Z,13.18
2019-02-21T23:22:07.604Z,10.65
2019-02-21T23:24:38.725Z,11.95
2019-02-21T23:27:09.088Z,20.10
2019-02-21T23:29:39.384Z,12.50
2019-02-21T23:32:09.605Z,10.73
2019-02-21T23:34:42.928Z,9.60
2019-02-21T23:37:13.573Z,10.67
2019-02-21T23:39:44.038Z,11.80
2019-02-21T23:42:14.816Z,14.10
2019-02-21T23:44:45.278Z,11.90
2019-02-21T23:47:15.748Z,17.80
2019-02-21T23:49:46.927Z,12.77
2019-02-21T23:52:17.059Z,13.20
2019-02-21T23:54:47.193Z,13.23
2019-02-21T23:57:17.462Z,11.03
2019-02-21T23:59:47.695Z,9.83
